Time;durP1;ratioP1;P1;durP2;ratioP2;P2;SDS_P1;SDS_P2;PMS_P1;PMS_P2;Temp;Humidity;BMP_temperature;BMP_pressure;BME280_temperature;BME280_humidity;BME280_pressure;Samples;Min_cycle;Max_cycle;Signal;HPM_P1;HPM_P2
2022/04/03 01:05:38;;;;;;;;;;;;;;;6.27;63.49;100525.31;4993897;28;1109;-96
2022/04/03 02:20:40;;;;;;;;;;;;;;;5.90;63.25;100466.53;4952009;29;609;-96
2022/04/03 02:58:33;;;;;;;;;;;;;;;5.73;63.10;100425.03;5055994;28;663;-96
2022/04/03 04:26:04;;;;;;;;;;;;;;;5.30;62.92;100344.88;4903118;29;922;-94
2022/04/03 04:35:20;;;;;;;;;;;;;;;5.27;62.79;100334.59;4957415;29;1197;-96
2022/04/03 05:09:38;;;;;;;;;;;;;;;5.10;62.73;100298.47;5061538;28;1638;-96
2022/04/03 05:15:42;;;;;;;;;;;;;;;5.08;62.75;100295.16;5055947;28;681;-96
2022/04/03 06:34:25;;;;;;;;;;;;;;;4.73;62.65;100233.63;5048572;28;3407;-94
2022/04/03 06:40:01;;;;;;;;;;;;;;;4.73;62.59;100220.28;5048063;28;2115;-95
2022/04/03 06:42:31;;;;;;;;;;;;;;;4.70;62.62;100224.16;5040699;28;4215;-96
2022/04/03 06:50:27;;;;;;;;;;;;;;;4.70;62.56;100228.66;5057103;28;3438;-96
2022/04/03 06:52:54;;;;;;;;;;;;;;;4.68;62.56;100226.19;5032654;28;1379;-96
2022/04/03 06:55:20;;;;;;;;;;;;;;;4.69;62.58;100227.03;5034447;28;3447;-96
2022/04/03 06:57:47;;;;;;;;;;;;;;;4.67;62.44;100226.38;5042133;28;3467;-96
2022/04/03 07:00:13;;;;;;;;;;;;;;;4.66;62.48;100216.72;5035768;28;1567;-96
2022/04/03 07:02:40;;;;;;;;;;;;;;;4.67;62.74;100218.38;5040897;28;3590;-96
2022/04/03 07:05:09;;;;;;;;;;;;;;;4.65;62.48;100207.91;5025825;28;1539;-96
2022/04/03 07:07:36;;;;;;;;;;;;;;;4.66;62.48;100198.88;5033569;28;3577;-96
2022/04/03 07:10:03;;;;;;;;;;;;;;;4.65;62.53;100201.75;5038555;28;3410;-96
2022/04/03 07:12:30;;;;;;;;;;;;;;;4.64;62.56;100190.22;5045961;28;1478;-96
2022/04/03 07:14:57;;;;;;;;;;;;;;;4.63;62.53;100188.59;5035140;28;3497;-96
2022/04/03 07:17:23;;;;;;;;;;;;;;;4.64;62.44;100192.06;5069602;28;2883;-96
2022/04/03 07:19:50;;;;;;;;;;;;;;;4.64;62.38;100189.41;5030433;28;3403;-96
2022/04/03 07:22:16;;;;;;;;;;;;;;;4.63;62.46;100185.91;5051524;28;3532;-96
2022/04/03 07:24:42;;;;;;;;;;;;;;;4.63;62.45;100177.91;5053585;28;3482;-96
2022/04/03 07:27:09;;;;;;;;;;;;;;;4.62;62.30;100178.94;5027401;28;1566;-96
2022/04/03 07:29:35;;;;;;;;;;;;;;;4.62;62.36;100173.59;5032370;28;3555;-96
2022/04/03 07:32:02;;;;;;;;;;;;;;;4.63;62.40;100177.09;5040315;28;1939;-96
2022/04/03 07:34:28;;;;;;;;;;;;;;;4.63;62.50;100177.09;5059242;28;1298;-96
2022/04/03 07:36:56;;;;;;;;;;;;;;;4.64;62.29;100174.22;5047750;28;3197;-96
2022/04/03 07:39:23;;;;;;;;;;;;;;;4.65;62.26;100173.22;5041993;28;1780;-96
2022/04/03 07:41:50;;;;;;;;;;;;;;;4.63;62.31;100161.91;5042589;28;2096;-96
2022/04/03 07:44:17;;;;;;;;;;;;;;;4.65;62.39;100159.88;5043016;28;1687;-96
2022/04/03 07:46:43;;;;;;;;;;;;;;;4.66;62.23;100156.19;5049129;28;1959;-96
2022/04/03 07:49:10;;;;;;;;;;;;;;;4.65;62.23;100151.88;5047268;28;1267;-96
2022/04/03 07:51:37;;;;;;;;;;;;;;;4.66;62.23;100153.53;5047904;28;1554;-96
2022/04/03 07:54:04;;;;;;;;;;;;;;;4.67;62.19;100149.00;5049245;28;1453;-96
2022/04/03 07:56:32;;;;;;;;;;;;;;;4.68;62.26;100148.00;5049877;28;1371;-96
2022/04/03 07:58:59;;;;;;;;;;;;;;;4.69;62.24;100144.31;5055121;28;1887;-96
2022/04/03 08:01:31;;;;;;;;;;;;;;;4.70;62.10;100148.63;5255360;22;3772;-96
2022/04/03 08:04:03;;;;;;;;;;;;;;;4.69;62.11;100139.81;5067681;28;1578;-96
2022/04/03 08:06:30;;;;;;;;;;;;;;;4.71;62.14;100137.78;5065201;28;2443;-96
2022/04/03 08:08:58;;;;;;;;;;;;;;;4.72;62.21;100141.25;5053594;28;1895;-96
2022/04/03 08:11:25;;;;;;;;;;;;;;;4.72;62.19;100126.06;5061352;28;1258;-96
2022/04/03 08:13:56;;;;;;;;;;;;;;;4.73;62.03;100127.72;5050707;28;1427;-96
2022/04/03 08:16:23;;;;;;;;;;;;;;;4.73;62.03;100127.72;5050961;28;1769;-96
2022/04/03 08:18:50;;;;;;;;;;;;;;;4.75;62.00;100127.53;5068141;28;1906;-96
2022/04/03 08:21:19;;;;;;;;;;;;;;;4.75;61.98;100133.69;5068501;28;1445;-96
2022/04/03 08:23:49;;;;;;;;;;;;;;;4.77;61.90;100131.69;5051747;28;1398;-96
2022/04/03 08:26:19;;;;;;;;;;;;;;;4.79;61.84;100128.78;5068809;28;1263;-96
2022/04/03 08:28:47;;;;;;;;;;;;;;;4.80;62.11;100130.47;5053098;28;1413;-96
2022/04/03 08:31:14;;;;;;;;;;;;;;;4.83;61.66;100123.94;5070092;28;985;-96
2022/04/03 08:33:41;;;;;;;;;;;;;;;4.83;61.78;100132.75;5068391;28;1472;-96
2022/04/03 08:36:10;;;;;;;;;;;;;;;4.84;61.89;100128.22;5069877;28;856;-96
2022/04/03 08:38:37;;;;;;;;;;;;;;;4.84;61.75;100129.06;5066346;28;1963;-96
2022/04/03 08:41:04;;;;;;;;;;;;;;;4.84;61.95;100121.03;5049012;28;1492;-96
2022/04/03 08:43:32;;;;;;;;;;;;;;;4.85;61.85;100122.69;5046002;28;2417;-96
2022/04/03 08:46:00;;;;;;;;;;;;;;;4.86;61.85;100111.00;5035997;28;1701;-96
2022/04/03 08:48:27;;;;;;;;;;;;;;;4.87;61.91;100118.00;5049680;28;1401;-96
2022/04/03 08:50:57;;;;;;;;;;;;;;;4.88;61.73;100116.16;5066024;28;1829;-97
2022/04/03 08:53:26;;;;;;;;;;;;;;;4.88;61.87;100100.13;5051172;28;1559;-96
2022/04/03 08:55:54;;;;;;;;;;;;;;;4.90;61.87;100104.25;5068100;28;1352;-96
2022/04/03 08:58:22;;;;;;;;;;;;;;;4.90;61.90;100101.59;5052574;28;1922;-96
2022/04/03 09:00:51;;;;;;;;;;;;;;;4.91;61.92;100099.75;5064873;28;2487;-96
2022/04/03 09:03:23;;;;;;;;;;;;;;;4.92;61.85;100098.75;5043806;28;1538;-96
2022/04/03 09:05:59;;;;;;;;;;;;;;;4.94;61.85;100089.53;5032067;28;2375;-96
2022/04/03 09:08:30;;;;;;;;;;;;;;;4.94;61.91;100083.34;5048443;28;1343;-96
2022/04/03 09:11:03;;;;;;;;;;;;;;;4.96;61.82;100083.97;5048303;28;2102;-96
2022/04/03 09:13:43;;;;;;;;;;;;;;;4.95;61.72;100067.16;5050813;28;1804;-96
2022/04/03 09:16:16;;;;;;;;;;;;;;;4.98;62.08;100064.09;5016217;28;1198;-96
2022/04/03 09:18:52;;;;;;;;;;;;;;;4.98;61.98;100053.41;5105946;22;3538;-96
2022/04/03 09:21:18;;;;;;;;;;;;;;;5.01;61.87;100063.69;5073711;28;1083;-96
2022/04/03 09:23:48;;;;;;;;;;;;;;;5.01;61.83;100057.53;5095072;28;1066;-96
2022/04/03 09:26:22;;;;;;;;;;;;;;;5.03;61.83;100055.50;5078312;28;1083;-96
2022/04/03 09:28:54;;;;;;;;;;;;;;;5.03;61.83;100057.34;5076443;28;1083;-96
2022/04/03 09:31:51;;;;;;;;;;;;;;;5.04;61.87;100054.47;5093479;28;1044;-96
2022/04/03 09:34:26;;;;;;;;;;;;;;;5.05;61.86;100044.63;5094766;28;1337;-96
2022/04/03 09:40:04;;;;;;;;;;;;;;;5.08;61.84;100045.06;5094454;28;1492;-96
2022/04/03 10:29:34;;;;;;;;;;;;;;;5.33;62.03;99959.97;5121999;22;3826;-96
2022/04/03 10:32:03;;;;;;;;;;;;;;;5.35;61.97;99962.41;5081632;28;1873;-96
2022/04/03 10:34:29;;;;;;;;;;;;;;;5.35;61.91;99963.22;5083268;28;809;-96
2022/04/03 10:42:40;;;;;;;;;;;;;;;5.39;61.91;99945.81;5093649;28;1725;-96
2022/04/03 10:45:20;;;;;;;;;;;;;;;5.42;61.78;99944.59;5076637;28;1532;-96
2022/04/03 10:50:59;;;;;;;;;;;;;;;5.45;61.96;99933.50;5101382;28;717;-96
2022/04/03 10:53:25;;;;;;;;;;;;;;;5.45;61.77;99931.63;5084368;28;1301;-96
2022/04/03 10:55:54;;;;;;;;;;;;;;;5.45;61.82;99920.97;5083997;28;1216;-96
2022/04/03 10:58:21;;;;;;;;;;;;;;;5.50;61.85;99920.38;5082298;28;1958;-96
2022/04/03 11:00:48;;;;;;;;;;;;;;;5.52;61.73;99922.81;5083510;28;1470;-96
2022/04/03 11:03:15;;;;;;;;;;;;;;;5.52;62.00;99920.16;5083096;28;1382;-96
2022/04/03 11:05:41;;;;;;;;;;;;;;;5.53;61.80;99905.75;5083106;28;1071;-96
2022/04/03 11:08:08;;;;;;;;;;;;;;;5.54;61.91;99910.09;5100544;28;1062;-96
2022/04/03 11:48:33;;;;;;;;;;;;;;;5.74;61.70;99832.66;5118100;28;1347;-96
2022/04/03 11:51:24;;;;;;;;;;;;;;;5.75;62.07;99827.09;5120978;28;753;-96
2022/04/03 11:54:16;;;;;;;;;;;;;;;5.76;61.75;99828.72;5120468;28;827;-96
2022/04/03 11:57:08;;;;;;;;;;;;;;;5.78;61.79;99809.81;5120793;28;725;-96
2022/04/03 12:00:00;;;;;;;;;;;;;;;5.79;61.82;99806.09;5120669;28;828;-96
2022/04/03 12:02:52;;;;;;;;;;;;;;;5.78;61.83;99794.59;5120376;28;765;-96
2022/04/03 12:05:46;;;;;;;;;;;;;;;5.80;61.88;99797.09;5120298;28;713;-96
2022/04/03 12:08:37;;;;;;;;;;;;;;;5.82;61.96;99800.34;5120533;28;778;-96
2022/04/03 12:11:29;;;;;;;;;;;;;;;5.83;61.90;99785.97;5120522;28;615;-96
2022/04/03 12:14:21;;;;;;;;;;;;;;;5.82;62.03;99787.81;5120505;28;630;-96
2022/04/03 12:17:12;;;;;;;;;;;;;;;5.84;61.94;99775.06;5120283;28;721;-96
2022/04/03 12:20:04;;;;;;;;;;;;;;;5.86;61.94;99774.88;5120532;28;608;-96
2022/04/03 12:22:56;;;;;;;;;;;;;;;5.88;61.85;99767.44;5120228;28;697;-96
2022/04/03 12:25:48;;;;;;;;;;;;;;;5.89;61.60;99769.13;5120272;28;733;-97
2022/04/03 12:28:40;;;;;;;;;;;;;;;5.88;61.88;99751.41;5108029;28;2087;-96
2022/04/03 12:31:08;;;;;;;;;;;;;;;5.92;62.00;99755.31;5091857;28;1535;-97
2022/04/03 13:08:44;;;;;;;;;;;;;;;6.03;61.86;99687.91;5356463;22;2028;-96
2022/04/03 18:37:44;;;;;;;;;;;;;;;6.32;62.44;99090.19;5095729;28;2347;-96
2022/04/03 19:11:49;;;;;;;;;;;;;;;6.29;62.94;99049.69;5099366;28;1290;-96
2022/04/03 19:46:01;;;;;;;;;;;;;;;6.26;62.52;99021.56;5119312;28;784;-96
2022/04/03 19:58:26;;;;;;;;;;;;;;;6.25;62.58;99011.13;5117693;28;1957;-96
2022/04/03 20:13:30;;;;;;;;;;;;;;;6.22;62.75;98982.16;5054836;28;1182;-96
2022/04/03 20:16:27;;;;;;;;;;;;;;;6.23;62.90;98978.44;5053489;28;706;-96
2022/04/03 20:45:57;;;;;;;;;;;;;;;6.15;62.76;98939.50;5093780;28;1347;-96
2022/04/03 20:52:08;;;;;;;;;;;;;;;6.13;63.04;98923.69;5071898;28;1758;-96
2022/04/03 20:54:52;;;;;;;;;;;;;;;6.13;63.05;98921.00;5086370;28;979;-96
2022/04/03 21:00:16;;;;;;;;;;;;;;;6.10;63.07;98913.44;5093405;28;1978;-96
2022/04/03 21:02:55;;;;;;;;;;;;;;;6.11;63.25;98912.38;5094053;28;977;-96
2022/04/03 21:05:48;;;;;;;;;;;;;;;6.11;63.13;98916.94;5094872;28;949;-96
2022/04/03 21:17:16;;;;;;;;;;;;;;;6.06;63.20;98896.25;5110215;28;1349;-96
2022/04/03 21:19:47;;;;;;;;;;;;;;;6.07;62.91;98897.88;5097767;28;1938;-96
2022/04/03 21:22:17;;;;;;;;;;;;;;;6.05;62.94;98886.59;5114883;28;880;-96
2022/04/03 21:24:53;;;;;;;;;;;;;;;6.05;63.26;98883.91;5097935;28;1415;-96
2022/04/03 21:30:28;;;;;;;;;;;;;;;6.04;63.04;98879.63;5113315;28;969;-96
2022/04/03 21:33:07;;;;;;;;;;;;;;;6.03;62.78;98872.66;5098896;28;923;-96
2022/04/03 21:38:48;;;;;;;;;;;;;;;6.01;62.83;98868.59;5104766;28;2036;-96
2022/04/03 21:41:30;;;;;;;;;;;;;;;6.00;63.10;98862.44;5081039;28;1580;-96
2022/04/03 21:49:49;;;;;;;;;;;;;;;5.98;62.87;98853.00;5114365;28;902;-96
2022/04/03 22:07:21;;;;;;;;;;;;;;;5.94;62.76;98835.78;5094167;28;1061;-96
2022/04/03 22:10:09;;;;;;;;;;;;;;;5.93;63.03;98821.63;5095308;28;942;-96
2022/04/03 22:15:27;;;;;;;;;;;;;;;5.92;62.88;98817.31;5068460;28;1507;-96
2022/04/03 22:24:39;;;;;;;;;;;;;;;5.90;62.86;98812.19;5098311;28;1243;-96
2022/04/03 22:30:50;;;;;;;;;;;;;;;5.90;62.54;98800.69;5098634;28;596;-96
2022/04/03 22:33:52;;;;;;;;;;;;;;;5.89;62.88;98802.53;5098219;28;592;-96
2022/04/03 22:39:57;;;;;;;;;;;;;;;5.88;62.60;98795.59;5098095;28;1882;-96
2022/04/03 22:43:05;;;;;;;;;;;;;;;5.88;62.53;98782.22;5077819;28;690;-96
2022/04/03 22:52:17;;;;;;;;;;;;;;;5.87;62.74;98777.09;5075953;28;683;-96
2022/04/03 22:58:24;;;;;;;;;;;;;;;5.85;62.62;98774.69;5077425;28;1953;-96
2022/04/03 23:01:17;;;;;;;;;;;;;;;5.85;62.33;98765.81;5077048;28;828;-96
2022/04/03 23:10:48;;;;;;;;;;;;;;;5.83;62.55;98760.72;5077864;28;1283;-96
2022/04/03 23:13:46;;;;;;;;;;;;;;;5.83;62.27;98743.88;5077418;28;1286;-96
2022/04/03 23:16:43;;;;;;;;;;;;;;;5.82;62.21;98742.25;5077263;28;1427;-96
2022/04/03 23:22:47;;;;;;;;;;;;;;;5.83;62.37;98733.19;5076521;28;541;-96
2022/04/03 23:26:00;;;;;;;;;;;;;;;5.82;62.39;98732.38;5076913;28;636;-96
2022/04/03 23:29:17;;;;;;;;;;;;;;;5.82;62.40;98721.69;5076944;28;715;-96
2022/04/03 23:32:21;;;;;;;;;;;;;;;5.81;62.54;98716.59;5075954;28;774;-96
2022/04/03 23:38:00;;;;;;;;;;;;;;;5.79;62.30;98706.13;5059957;28;1106;-96
2022/04/03 23:40:45;;;;;;;;;;;;;;;5.78;62.42;98709.03;5060399;28;1958;-96
2022/04/03 23:43:22;;;;;;;;;;;;;;;5.78;62.48;98701.81;5094632;28;895;-96
2022/04/03 23:46:04;;;;;;;;;;;;;;;5.77;62.26;98708.22;5095942;28;856;-96
2022/04/03 23:48:41;;;;;;;;;;;;;;;5.78;62.55;98695.69;5094927;28;979;-96
2022/04/03 23:54:23;;;;;;;;;;;;;;;5.76;62.40;98674.53;5095948;28;616;-96
